createdAt,value
2022-12-26T00:01:57.733Z,1.33
2022-12-26T00:04:51.514Z,1.60
2022-12-26T00:07:14.024Z,1.10
2022-12-26T00:09:42.304Z,1.20
2022-12-26T00:12:10.513Z,1.30
2022-12-26T00:14:40.519Z,1.10
2022-12-26T00:17:08.727Z,1.20
2022-12-26T00:19:36.937Z,1.17
2022-12-26T00:22:05.277Z,1.53
2022-12-26T00:24:33.583Z,1.77
2022-12-26T00:27:01.732Z,1.60
2022-12-26T00:29:29.997Z,1.33
2022-12-26T00:31:59.627Z,1.40
2022-12-26T00:34:27.958Z,1.50
2022-12-26T00:36:56.202Z,1.70
2022-12-26T00:39:24.416Z,1.30
2022-12-26T00:41:52.537Z,1.60
2022-12-26T00:44:21.023Z,1.50
2022-12-26T00:46:49.226Z,1.87
2022-12-26T00:49:18.737Z,1.77
2022-12-26T00:51:46.946Z,1.80
2022-12-26T00:54:15.226Z,1.33
2022-12-26T00:56:43.367Z,1.43
2022-12-26T00:59:11.603Z,1.37
2022-12-26T01:01:40.071Z,2.07
2022-12-26T01:04:08.410Z,2.10
2022-12-26T01:06:37.974Z,1.67
2022-12-26T01:09:06.261Z,1.60
2022-12-26T01:11:43.700Z,1.40
2022-12-26T01:14:13.791Z,1.63
2022-12-26T01:16:44.468Z,1.63
2022-12-26T01:19:13.198Z,1.13
2022-12-26T01:22:10.833Z,1.40
2022-12-26T01:24:39.495Z,1.50
2022-12-26T01:27:07.774Z,1.50
2022-12-26T01:29:36.012Z,2.20
2022-12-26T01:32:04.938Z,1.23
2022-12-26T01:34:33.475Z,1.50
2022-12-26T01:37:02.958Z,1.60
2022-12-26T01:39:31.532Z,1.50
2022-12-26T01:41:59.796Z,1.57
2022-12-26T01:44:59.296Z,1.50
2022-12-26T01:47:40.695Z,1.17
2022-12-26T01:50:32.584Z,1.20
2022-12-26T01:53:06.420Z,1.80
2022-12-26T01:55:35.145Z,1.80
2022-12-26T01:58:08.320Z,1.53
2022-12-26T02:00:39.578Z,1.33
2022-12-26T02:03:28.036Z,1.73
2022-12-26T02:06:01.569Z,1.20
2022-12-26T02:08:35.336Z,1.17
2022-12-26T02:11:09.961Z,1.63
2022-12-26T02:13:39.830Z,1.97
2022-12-26T02:16:10.364Z,1.17
2022-12-26T02:18:38.609Z,1.20
2022-12-26T02:21:26.847Z,1.13
2022-12-26T02:24:30.735Z,1.30
2022-12-26T02:27:22.950Z,1.37
2022-12-26T02:30:25.329Z,0.90
2022-12-26T02:33:29.901Z,1.23
2022-12-26T02:36:18.184Z,1.40
2022-12-26T02:39:00.939Z,0.83
2022-12-26T02:41:40.331Z,0.90
2022-12-26T02:44:43.007Z,1.20
2022-12-26T02:47:20.433Z,0.90
2022-12-26T02:50:20.483Z,1.00
2022-12-26T02:53:16.456Z,1.10
2022-12-26T02:56:04.530Z,1.03
2022-12-26T02:58:57.446Z,1.20
2022-12-26T03:01:47.088Z,1.00
2022-12-26T03:04:52.446Z,1.03
2022-12-26T03:07:41.559Z,1.00
2022-12-26T03:10:37.310Z,1.20
2022-12-26T03:13:12.501Z,1.23
2022-12-26T03:16:04.982Z,1.30
2022-12-26T03:18:58.520Z,1.20
2022-12-26T03:21:28.600Z,0.73
2022-12-26T03:23:57.661Z,1.43
2022-12-26T03:26:41.498Z,1.33
2022-12-26T03:29:29.759Z,1.27
2022-12-26T03:31:58.071Z,1.33
2022-12-26T03:34:28.178Z,1.30
2022-12-26T03:37:26.462Z,1.30
2022-12-26T03:40:40.648Z,1.53
2022-12-26T03:43:40.491Z,1.23
2022-12-26T03:46:34.861Z,1.03
2022-12-26T03:49:26.704Z,1.00
2022-12-26T03:52:17.772Z,1.57
2022-12-26T03:55:11.510Z,1.50
2022-12-26T03:58:06.353Z,1.30
2022-12-26T04:00:53.364Z,1.50
2022-12-26T04:03:42.588Z,1.10
2022-12-26T04:06:37.045Z,1.33
2022-12-26T04:09:27.208Z,1.10
2022-12-26T04:12:16.125Z,1.20
2022-12-26T04:15:08.264Z,1.17
2022-12-26T04:17:58.488Z,1.27
2022-12-26T04:20:37.711Z,1.43
2022-12-26T04:23:27.686Z,1.77
2022-12-26T04:26:21.382Z,1.10
2022-12-26T04:29:08.512Z,0.93
2022-12-26T04:32:02.791Z,1.50
2022-12-26T04:34:58.269Z,1.23
2022-12-26T04:37:46.863Z,1.10
2022-12-26T04:40:37.699Z,1.13
2022-12-26T04:43:50.188Z,1.50
2022-12-26T04:46:17.355Z,1.10
2022-12-26T04:49:06.574Z,1.30
2022-12-26T04:51:35.126Z,1.27
2022-12-26T04:54:03.730Z,1.10
2022-12-26T04:56:31.962Z,0.70
2022-12-26T04:59:00.510Z,1.03
2022-12-26T05:01:47.951Z,1.20
2022-12-26T05:04:43.206Z,0.70
2022-12-26T05:07:34.382Z,1.00
2022-12-26T05:10:02.996Z,1.00
2022-12-26T05:12:31.218Z,0.80
2022-12-26T05:14:59.424Z,0.80
2022-12-26T05:17:47.548Z,0.97
2022-12-26T05:20:44.652Z,0.87
2022-12-26T05:23:36.896Z,1.03
2022-12-26T05:26:24.074Z,0.93
2022-12-26T05:28:57.421Z,1.20
2022-12-26T05:31:31.182Z,1.20
2022-12-26T05:34:06.526Z,1.20
2022-12-26T05:36:38.301Z,0.83
2022-12-26T05:39:07.135Z,0.90
2022-12-26T05:41:35.749Z,1.30
2022-12-26T05:44:04.315Z,0.90
2022-12-26T05:46:32.646Z,0.90
2022-12-26T05:49:01.084Z,0.93
2022-12-26T05:51:30.663Z,0.73
2022-12-26T05:53:58.853Z,0.70
2022-12-26T05:56:27.038Z,0.80
2022-12-26T05:58:56.113Z,1.10
2022-12-26T06:01:25.892Z,0.60
2022-12-26T06:03:56.455Z,0.90
2022-12-26T06:06:26.213Z,0.90
2022-12-26T06:08:57.749Z,1.03
2022-12-26T06:11:27.096Z,0.90
2022-12-26T06:13:55.541Z,0.60
2022-12-26T06:16:24.028Z,0.70
2022-12-26T06:18:52.330Z,1.03
2022-12-26T06:21:21.405Z,0.80
2022-12-26T06:23:50.337Z,0.70
2022-12-26T06:26:19.935Z,0.80
2022-12-26T06:28:48.185Z,0.70
2022-12-26T06:31:20.538Z,0.90
2022-12-26T06:33:51.284Z,0.90
2022-12-26T06:36:22.230Z,0.93
2022-12-26T06:38:50.884Z,1.10
2022-12-26T06:41:22.696Z,1.07
2022-12-26T06:43:51.224Z,1.50
2022-12-26T06:46:20.922Z,1.17
2022-12-26T06:48:49.441Z,0.87
2022-12-26T06:51:19.486Z,0.97
2022-12-26T06:53:48.385Z,1.00
2022-12-26T06:56:18.051Z,1.20
2022-12-26T06:58:47.693Z,0.90
2022-12-26T07:01:17.801Z,0.90
2022-12-26T07:03:51.082Z,0.90
2022-12-26T07:06:24.368Z,0.80
2022-12-26T07:08:53.874Z,0.70
2022-12-26T07:11:24.077Z,0.60
2022-12-26T07:13:54.304Z,0.77
2022-12-26T07:16:23.013Z,0.80
2022-12-26T07:18:54.008Z,0.53
2022-12-26T07:21:22.710Z,0.80
2022-12-26T07:23:51.418Z,0.67
2022-12-26T07:26:20.021Z,0.70
2022-12-26T07:28:48.593Z,0.80
2022-12-26T07:31:20.653Z,0.67
2022-12-26T07:33:49.628Z,0.70
2022-12-26T07:36:18.800Z,0.50
2022-12-26T07:38:47.402Z,0.80
2022-12-26T07:41:32.882Z,0.53
2022-12-26T07:44:01.216Z,0.60
2022-12-26T07:46:30.991Z,0.87
2022-12-26T07:48:59.616Z,0.77
2022-12-26T07:51:28.436Z,0.73
2022-12-26T07:53:56.951Z,0.60
2022-12-26T07:56:25.323Z,0.63
2022-12-26T07:58:53.798Z,0.60
2022-12-26T08:01:22.116Z,1.30
2022-12-26T08:03:51.942Z,1.70
2022-12-26T08:06:21.027Z,1.23
2022-12-26T08:08:51.389Z,1.37
2022-12-26T08:11:23.382Z,1.20
2022-12-26T08:13:51.754Z,1.10
2022-12-26T08:16:21.118Z,1.00
2022-12-26T08:18:50.751Z,0.97
2022-12-26T08:21:19.091Z,1.13
2022-12-26T08:23:48.371Z,1.10
2022-12-26T08:26:22.334Z,1.90
2022-12-26T08:28:52.160Z,1.60
2022-12-26T08:31:21.938Z,1.20
2022-12-26T08:33:51.657Z,0.97
2022-12-26T08:36:19.895Z,1.20
2022-12-26T08:38:48.154Z,1.33
2022-12-26T08:41:17.574Z,1.30
2022-12-26T08:46:37.784Z,1.10
2022-12-26T08:49:07.805Z,1.57
2022-12-26T08:51:36.298Z,1.70
2022-12-26T08:54:04.867Z,1.00
2022-12-26T08:56:33.364Z,1.10
2022-12-26T08:59:01.578Z,1.30
2022-12-26T09:01:31.686Z,1.10
2022-12-26T09:04:02.008Z,1.10
2022-12-26T09:06:33.798Z,1.00
2022-12-26T09:09:02.729Z,1.00
2022-12-26T09:11:31.625Z,1.03
2022-12-26T09:14:02.718Z,1.97
2022-12-26T09:16:38.347Z,1.00
2022-12-26T09:19:08.294Z,0.80
2022-12-26T09:21:38.144Z,0.87
2022-12-26T09:24:08.506Z,0.93
2022-12-26T09:26:37.488Z,0.90
2022-12-26T09:29:06.132Z,0.93
2022-12-26T09:31:36.287Z,0.80
2022-12-26T09:34:05.827Z,0.80
2022-12-26T09:36:37.950Z,0.63
2022-12-26T09:39:08.409Z,0.70
2022-12-26T09:41:58.737Z,0.80
2022-12-26T09:44:32.041Z,0.80
2022-12-26T09:47:13.007Z,0.70
2022-12-26T09:49:48.677Z,0.90
2022-12-26T09:52:21.905Z,1.20
2022-12-26T09:54:55.559Z,0.53
2022-12-26T09:57:41.890Z,0.97
2022-12-26T10:00:20.317Z,1.20
2022-12-26T10:02:52.929Z,1.07
2022-12-26T10:05:22.946Z,0.70
2022-12-26T10:07:56.404Z,0.73
2022-12-26T10:10:30.991Z,0.70
2022-12-26T10:13:07.668Z,1.00
2022-12-26T10:15:44.336Z,1.20
2022-12-26T10:18:26.088Z,0.77
2022-12-26T10:21:12.499Z,1.10
2022-12-26T10:23:45.433Z,0.80
2022-12-26T10:26:19.051Z,1.40
2022-12-26T10:28:50.469Z,0.77
2022-12-26T10:31:22.479Z,0.80
2022-12-26T10:33:57.363Z,1.20
2022-12-26T10:36:33.767Z,0.90
2022-12-26T10:39:06.326Z,1.10
2022-12-26T10:41:42.917Z,0.70
2022-12-26T10:44:13.479Z,1.10
2022-12-26T10:47:21.539Z,0.90
2022-12-26T10:49:50.073Z,0.80
2022-12-26T10:52:20.061Z,0.70
2022-12-26T10:55:27.095Z,1.10
2022-12-26T10:57:48.337Z,0.97
2022-12-26T11:00:21.138Z,1.23
2022-12-26T11:03:04.238Z,1.00
2022-12-26T11:08:27.423Z,0.90
2022-12-26T11:11:05.747Z,0.83
2022-12-26T11:13:39.553Z,0.70
2022-12-26T11:16:08.911Z,0.80
2022-12-26T11:18:40.514Z,1.00
2022-12-26T11:21:23.167Z,1.33
2022-12-26T11:23:52.712Z,0.80
2022-12-26T11:26:23.974Z,0.63
2022-12-26T11:29:11.018Z,1.07
2022-12-26T11:31:41.877Z,0.87
2022-12-26T11:34:15.514Z,2.40
2022-12-26T11:36:48.046Z,0.80
2022-12-26T11:39:23.912Z,1.00
2022-12-26T11:41:52.854Z,0.90
2022-12-26T11:44:27.336Z,1.47
2022-12-26T11:46:59.352Z,1.40
2022-12-26T11:49:31.876Z,1.40
2022-12-26T11:52:02.593Z,0.80
2022-12-26T11:54:37.087Z,2.33
2022-12-26T11:57:28.846Z,1.23
2022-12-26T12:00:17.140Z,1.37
2022-12-26T12:02:45.605Z,1.43
2022-12-26T12:05:16.384Z,1.30
2022-12-26T12:08:04.927Z,1.67
2022-12-26T12:10:49.090Z,0.97
2022-12-26T12:13:28.418Z,1.53
2022-12-26T12:16:05.396Z,1.20
2022-12-26T12:18:44.257Z,0.93
2022-12-26T12:21:19.918Z,0.90
2022-12-26T12:24:11.364Z,0.83
2022-12-26T12:26:54.868Z,0.80
2022-12-26T12:29:36.289Z,0.90
2022-12-26T12:32:18.166Z,1.30
2022-12-26T12:35:16.358Z,0.70
2022-12-26T12:38:00.673Z,1.47
2022-12-26T12:40:37.619Z,0.97
2022-12-26T12:43:13.632Z,0.90
2022-12-26T12:45:53.881Z,0.90
2022-12-26T12:48:48.260Z,0.93
2022-12-26T12:51:27.490Z,1.00
2022-12-26T12:54:22.292Z,1.00
2022-12-26T12:56:57.984Z,0.90
2022-12-26T12:59:32.208Z,0.83
2022-12-26T13:02:09.633Z,2.60
2022-12-26T13:04:44.171Z,2.20
2022-12-26T13:07:17.226Z,1.20
2022-12-26T13:09:48.836Z,1.00
2022-12-26T13:12:21.932Z,1.50
2022-12-26T13:14:53.798Z,0.80
2022-12-26T13:17:26.326Z,1.37
2022-12-26T13:20:02.848Z,1.30
2022-12-26T13:22:55.556Z,1.60
2022-12-26T13:25:26.832Z,0.70
2022-12-26T13:28:09.326Z,0.70
2022-12-26T13:30:38.714Z,0.90
2022-12-26T13:33:07.261Z,0.77
2022-12-26T13:35:55.680Z,0.90
2022-12-26T13:38:26.057Z,1.20
2022-12-26T13:41:19.613Z,1.13
2022-12-26T13:44:01.312Z,0.83
2022-12-26T13:46:38.865Z,1.27
2022-12-26T13:49:28.415Z,0.83
2022-12-26T13:52:22.995Z,0.67
2022-12-26T13:55:30.358Z,0.60
2022-12-26T13:58:38.321Z,0.70
2022-12-26T14:01:20.771Z,0.63
2022-12-26T14:04:15.716Z,0.90
2022-12-26T14:07:16.150Z,0.77
2022-12-26T14:09:58.724Z,1.30
2022-12-26T14:12:40.455Z,1.07
2022-12-26T14:15:32.750Z,1.00
2022-12-26T14:18:13.288Z,1.17
2022-12-26T14:20:50.978Z,1.00
2022-12-26T14:23:37.942Z,0.87
2022-12-26T14:26:15.600Z,1.00
2022-12-26T14:28:57.431Z,1.07
2022-12-26T14:31:38.377Z,0.87
2022-12-26T14:34:21.616Z,1.10
2022-12-26T14:36:57.092Z,0.90
2022-12-26T14:39:37.658Z,1.20
2022-12-26T14:42:39.351Z,0.60
2022-12-26T14:45:39.315Z,0.70
2022-12-26T14:48:41.878Z,1.10
2022-12-26T14:51:36.881Z,0.90
2022-12-26T14:54:37.705Z,0.70
2022-12-26T14:57:42.008Z,0.90
2022-12-26T15:00:36.920Z,1.20
2022-12-26T15:03:33.663Z,1.30
2022-12-26T15:06:29.192Z,0.90
2022-12-26T15:09:14.244Z,0.90
2022-12-26T15:12:14.295Z,2.13
2022-12-26T15:15:18.317Z,1.07
2022-12-26T15:17:55.842Z,1.17
2022-12-26T15:21:00.794Z,1.50
2022-12-26T15:24:07.835Z,1.23
2022-12-26T15:27:10.437Z,1.73
2022-12-26T15:30:00.602Z,1.30
2022-12-26T15:32:35.298Z,1.37
2022-12-26T15:35:18.998Z,1.70
2022-12-26T15:38:04.805Z,1.07
2022-12-26T15:40:36.972Z,1.40
2022-12-26T15:43:26.917Z,1.50
2022-12-26T15:46:10.766Z,1.50
2022-12-26T15:49:15.307Z,1.63
2022-12-26T15:51:57.559Z,2.10
2022-12-26T15:54:47.653Z,1.90
2022-12-26T15:57:27.189Z,1.50
2022-12-26T16:00:19.682Z,1.60
2022-12-26T16:03:04.236Z,1.60
2022-12-26T16:05:38.716Z,2.00
2022-12-26T16:08:42.470Z,1.20
2022-12-26T16:11:17.730Z,1.47
2022-12-26T16:13:55.862Z,1.83
2022-12-26T16:16:32.058Z,1.03
2022-12-26T16:19:16.173Z,1.37
2022-12-26T16:22:04.994Z,1.40
2022-12-26T16:24:37.490Z,1.37
2022-12-26T16:27:09.653Z,1.60
2022-12-26T16:29:45.898Z,1.23
2022-12-26T16:32:18.932Z,1.47
2022-12-26T16:34:47.671Z,2.57
2022-12-26T16:37:20.810Z,2.37
2022-12-26T16:40:09.348Z,2.30
2022-12-26T16:42:37.550Z,2.53
2022-12-26T16:45:07.776Z,2.53
2022-12-26T16:47:37.520Z,2.97
2022-12-26T16:50:06.795Z,4.30
2022-12-26T16:52:45.623Z,2.53
2022-12-26T16:55:43.173Z,2.80
2022-12-26T16:58:23.690Z,3.13
2022-12-26T17:01:04.523Z,2.90
2022-12-26T17:03:41.809Z,3.10
2022-12-26T17:06:13.743Z,3.10
2022-12-26T17:08:44.508Z,2.87
2022-12-26T17:11:13.498Z,3.40
2022-12-26T17:13:43.363Z,3.40
2022-12-26T17:16:11.654Z,4.20
2022-12-26T17:18:47.264Z,3.83
2022-12-26T17:21:28.894Z,4.10
2022-12-26T17:24:20.914Z,3.53
2022-12-26T17:26:53.733Z,4.13
2022-12-26T17:29:48.690Z,4.20
2022-12-26T17:32:25.616Z,3.63
2022-12-26T17:34:55.676Z,3.20
2022-12-26T17:37:26.145Z,3.33
2022-12-26T17:40:02.805Z,3.23
2022-12-26T17:42:47.584Z,3.70
2022-12-26T17:45:21.079Z,2.30
2022-12-26T17:47:51.273Z,3.00
2022-12-26T17:50:21.538Z,2.77
2022-12-26T17:52:49.974Z,2.57
2022-12-26T17:55:22.815Z,3.10
2022-12-26T17:57:50.954Z,2.63
2022-12-26T18:00:21.135Z,2.93
2022-12-26T18:02:50.302Z,2.43
2022-12-26T18:05:20.916Z,2.87
2022-12-26T18:07:51.558Z,2.77
2022-12-26T18:10:22.518Z,3.20
2022-12-26T18:12:51.434Z,3.60
2022-12-26T18:15:20.567Z,2.60
2022-12-26T18:17:50.781Z,3.00
2022-12-26T18:20:22.646Z,2.90
2022-12-26T18:22:51.372Z,2.57
2022-12-26T18:25:21.803Z,1.70
2022-12-26T18:27:50.403Z,1.67
2022-12-26T18:30:21.950Z,2.20
2022-12-26T18:32:52.547Z,1.40
2022-12-26T18:35:22.921Z,1.80
2022-12-26T18:37:52.559Z,1.87
2022-12-26T18:40:34.358Z,2.40
2022-12-26T18:43:03.301Z,1.63
2022-12-26T18:45:32.171Z,2.50
2022-12-26T18:48:01.106Z,1.47
2022-12-26T18:50:31.828Z,1.67
2022-12-26T18:53:01.272Z,1.20
2022-12-26T18:55:30.026Z,1.90
2022-12-26T18:57:58.327Z,1.50
2022-12-26T19:00:28.702Z,1.40
2022-12-26T19:02:57.377Z,1.90
2022-12-26T19:05:28.670Z,2.77
2022-12-26T19:07:59.335Z,1.60
2022-12-26T19:10:30.129Z,1.70
2022-12-26T19:13:05.387Z,1.77
2022-12-26T19:15:35.618Z,1.70
2022-12-26T19:18:04.273Z,4.00
2022-12-26T19:20:32.894Z,2.17
2022-12-26T19:23:02.397Z,2.07
2022-12-26T19:25:30.618Z,3.10
2022-12-26T19:27:59.044Z,3.20
2022-12-26T19:30:27.294Z,2.93
2022-12-26T19:32:55.567Z,3.50
2022-12-26T19:35:23.639Z,2.17
2022-12-26T19:37:51.819Z,1.83
2022-12-26T19:40:25.135Z,2.40
2022-12-26T19:42:54.035Z,2.33
2022-12-26T19:45:22.691Z,2.57
2022-12-26T19:47:51.000Z,2.33
2022-12-26T19:50:19.444Z,2.67
2022-12-26T19:52:47.715Z,2.50
2022-12-26T19:55:16.004Z,2.77
2022-12-26T19:57:45.734Z,2.10
2022-12-26T20:00:14.404Z,2.43
2022-12-26T20:02:43.068Z,1.90
2022-12-26T20:05:11.586Z,2.10
2022-12-26T20:07:39.920Z,2.10
2022-12-26T20:10:08.446Z,2.43
2022-12-26T20:12:36.613Z,2.50
2022-12-26T20:15:09.357Z,2.53
2022-12-26T20:17:37.995Z,2.70
2022-12-26T20:20:07.221Z,2.10
2022-12-26T20:22:35.438Z,2.40
2022-12-26T20:25:09.628Z,2.00
2022-12-26T20:27:38.125Z,2.03
2022-12-26T20:30:11.084Z,1.77
2022-12-26T20:32:43.891Z,1.47
2022-12-26T20:35:12.292Z,1.90
2022-12-26T20:37:40.666Z,1.50
2022-12-26T20:40:10.254Z,1.80
2022-12-26T20:42:38.687Z,1.63
2022-12-26T20:45:10.259Z,1.37
2022-12-26T20:47:38.606Z,1.73
2022-12-26T20:50:08.176Z,1.70
2022-12-26T20:52:36.634Z,1.37
2022-12-26T20:55:05.251Z,1.43
2022-12-26T20:57:33.511Z,1.37
2022-12-26T21:00:01.967Z,1.77
2022-12-26T21:02:32.885Z,1.40
2022-12-26T21:05:02.185Z,1.77
2022-12-26T21:07:33.117Z,1.67
2022-12-26T21:10:01.443Z,1.23
2022-12-26T21:12:29.687Z,1.90
2022-12-26T21:14:57.915Z,1.87
2022-12-26T21:17:26.235Z,2.20
2022-12-26T21:19:55.872Z,1.93
2022-12-26T21:22:24.543Z,1.53
2022-12-26T21:24:52.814Z,1.40
2022-12-26T21:27:21.131Z,1.90
2022-12-26T21:29:49.409Z,1.70
2022-12-26T21:32:17.733Z,2.07
2022-12-26T21:34:46.028Z,2.03
2022-12-26T21:37:38.378Z,2.23
2022-12-26T21:40:07.872Z,1.30
2022-12-26T21:42:36.152Z,2.00
2022-12-26T21:45:04.783Z,1.43
2022-12-26T21:47:33.066Z,1.67
2022-12-26T21:50:01.322Z,1.97
2022-12-26T21:52:31.132Z,2.10
2022-12-26T21:55:17.035Z,1.53
2022-12-26T21:57:45.299Z,1.80
2022-12-26T22:00:15.153Z,2.07
2022-12-26T22:03:01.162Z,2.13
2022-12-26T22:05:31.388Z,2.00
2022-12-26T22:08:02.560Z,1.60
2022-12-26T22:10:50.243Z,1.97
2022-12-26T22:13:19.553Z,3.40
2022-12-26T22:16:06.787Z,1.97
2022-12-26T22:18:37.152Z,2.30
2022-12-26T22:21:08.108Z,1.60
2022-12-26T22:23:38.641Z,1.93
2022-12-26T22:26:08.567Z,3.00
2022-12-26T22:28:36.921Z,2.00
2022-12-26T22:31:05.998Z,2.17
2022-12-26T22:33:34.448Z,3.10
2022-12-26T22:36:07.811Z,2.43
2022-12-26T22:38:38.510Z,2.77
2022-12-26T22:41:22.860Z,2.00
2022-12-26T22:43:57.871Z,1.80
2022-12-26T22:46:30.632Z,1.60
2022-12-26T22:48:58.884Z,2.03
2022-12-26T22:51:27.749Z,2.17
2022-12-26T22:53:58.914Z,2.13
2022-12-26T22:56:27.681Z,2.53
2022-12-26T22:58:56.428Z,2.40
2022-12-26T23:01:24.974Z,1.93
2022-12-26T23:03:53.344Z,2.17
2022-12-26T23:06:24.197Z,2.33
2022-12-26T23:08:54.399Z,2.27
2022-12-26T23:11:30.293Z,2.10
2022-12-26T23:14:03.330Z,2.03
2022-12-26T23:16:35.304Z,2.07
2022-12-26T23:19:29.032Z,1.77
2022-12-26T23:21:58.730Z,1.77
2022-12-26T23:24:29.818Z,1.70
2022-12-26T23:27:21.869Z,2.07
2022-12-26T23:30:23.459Z,1.70
2022-12-26T23:32:53.590Z,1.73
2022-12-26T23:35:23.030Z,1.93
2022-12-26T23:37:52.168Z,1.60
2022-12-26T23:40:21.368Z,1.87
2022-12-26T23:42:50.976Z,1.73
2022-12-26T23:45:19.507Z,2.73
2022-12-26T23:47:48.078Z,2.00
2022-12-26T23:50:17.414Z,2.03
2022-12-26T23:52:46.031Z,1.37
2022-12-26T23:55:14.273Z,1.43
2022-12-26T23:57:42.451Z,2.10
